Florence, Massachusetts
Current Conditions -  °F | °C
As of 12:58 AM on Saturday 25 Oct 2014 (Local Time) from KCEF Reporting Station
Clear Clear  
Wind Chill: 40°   Ceiling: Unl
Heat Index: 43°   Visibility: 10mi
Dew Point: 40°   Wind: 5mph
Humidity: 90%   Direction: 340°NNW
Pressure: 29.78"   Gusts: NA
Location:  42.34°N, 72.67°W
Report Text: KCEF 250458Z AUTO 34004KT 10SM CLR 06/05 A2978 RMK AO2 SLP091 T00610045 401230060
Loading
Personal Weather Stations






























Interactive Weather Map
Tropical Storm Tracking
New forecast layout! Learn more

10-Day Weather Forecast

Advertisements
Track Severe Weather on mobile